createdAt,value
2018-07-11T00:02:31.272Z,14.70
2018-07-11T00:06:34.712Z,14.70
2018-07-11T00:10:38.116Z,14.60
2018-07-11T00:14:41.505Z,14.60
2018-07-11T00:18:44.902Z,14.60
2018-07-11T00:22:48.303Z,14.50
2018-07-11T00:26:51.713Z,14.40
2018-07-11T00:30:55.288Z,14.40
2018-07-11T00:34:58.681Z,14.40
2018-07-11T00:39:02.227Z,14.30
2018-07-11T00:43:05.689Z,14.30
2018-07-11T00:47:09.085Z,14.20
2018-07-11T00:51:12.565Z,14.20
2018-07-11T00:55:15.973Z,14.10
2018-07-11T00:59:23.747Z,14.10
2018-07-11T01:03:27.141Z,14.00
2018-07-11T01:07:30.802Z,13.90
2018-07-11T01:11:36.306Z,13.90
2018-07-11T01:15:39.689Z,13.80
2018-07-11T01:19:44.049Z,13.70
2018-07-11T01:23:47.411Z,13.70
2018-07-11T01:27:50.771Z,13.60
2018-07-11T01:31:54.282Z,13.50
2018-07-11T01:35:57.642Z,13.50
2018-07-11T01:40:00.991Z,13.40
2018-07-11T01:44:04.381Z,13.40
2018-07-11T01:48:07.776Z,13.30
2018-07-11T01:52:22.471Z,13.30
2018-07-11T01:56:26.513Z,13.30
2018-07-11T02:00:30.763Z,13.20
2018-07-11T02:04:35.985Z,13.20
2018-07-11T02:08:42.387Z,13.20
2018-07-11T02:12:45.795Z,13.20
2018-07-11T02:16:49.215Z,13.20
2018-07-11T02:20:52.674Z,13.20
2018-07-11T02:24:56.107Z,13.20
2018-07-11T02:29:00.264Z,13.10
2018-07-11T02:37:06.707Z,13.10
2018-07-11T02:41:10.112Z,13.10
2018-07-11T02:45:13.476Z,13.10
2018-07-11T02:49:16.905Z,13.10
2018-07-11T02:53:24.168Z,13.10
2018-07-11T02:57:27.593Z,13.10
2018-07-11T03:01:30.966Z,13.00
2018-07-11T03:05:35.130Z,13.00
2018-07-11T03:09:38.507Z,13.00
2018-07-11T03:13:42.080Z,13.00
2018-07-11T03:17:45.441Z,12.90
2018-07-11T03:21:48.920Z,12.90
2018-07-11T03:25:52.809Z,12.90
2018-07-11T03:29:56.199Z,12.90
2018-07-11T03:33:59.596Z,12.90
2018-07-11T03:38:03.024Z,12.90
2018-07-11T03:42:06.393Z,12.90
2018-07-11T03:46:09.747Z,12.90
2018-07-11T03:50:13.107Z,12.90
2018-07-11T03:54:16.471Z,12.90
2018-07-11T03:58:19.820Z,12.90
2018-07-11T04:02:23.175Z,12.90
2018-07-11T04:06:26.519Z,13.00
2018-07-11T04:10:29.892Z,13.00
2018-07-11T04:14:33.260Z,13.00
2018-07-11T04:18:36.587Z,13.00
2018-07-11T04:22:39.914Z,13.00
2018-07-11T04:26:43.262Z,13.00
2018-07-11T04:30:46.749Z,13.10
2018-07-11T04:34:50.100Z,13.10
2018-07-11T04:38:53.477Z,13.20
2018-07-11T04:42:56.835Z,13.20
2018-07-11T04:47:00.202Z,13.20
2018-07-11T04:51:03.707Z,13.30
2018-07-11T04:55:07.173Z,13.30
2018-07-11T04:59:10.513Z,13.30
2018-07-11T05:03:13.842Z,13.30
2018-07-11T05:07:17.159Z,13.40
2018-07-11T05:11:20.474Z,13.40
2018-07-11T05:15:23.834Z,13.50
2018-07-11T05:19:27.168Z,13.40
2018-07-11T05:23:30.523Z,13.50
2018-07-11T05:27:33.904Z,13.50
2018-07-11T05:31:37.258Z,13.50
2018-07-11T05:35:40.610Z,13.50
2018-07-11T05:39:43.976Z,13.60
2018-07-11T05:43:47.351Z,13.60
2018-07-11T05:47:50.871Z,13.60
2018-07-11T05:51:54.290Z,13.70
2018-07-11T05:55:57.645Z,13.70
2018-07-11T06:00:01.027Z,13.80
2018-07-11T06:04:04.344Z,13.80
2018-07-11T06:08:07.971Z,13.80
2018-07-11T06:12:11.302Z,13.90
2018-07-11T06:16:14.719Z,13.90
2018-07-11T06:20:18.074Z,14.00
2018-07-11T06:24:21.568Z,14.00
2018-07-11T06:28:24.890Z,14.10
2018-07-11T06:32:28.234Z,14.10
2018-07-11T06:36:31.592Z,14.20
2018-07-11T06:40:34.951Z,14.20
2018-07-11T06:44:38.300Z,14.30
2018-07-11T06:48:41.611Z,14.30
2018-07-11T06:52:44.955Z,14.30
2018-07-11T06:56:48.406Z,14.40
2018-07-11T07:00:51.883Z,14.40
2018-07-11T07:04:55.212Z,14.40
2018-07-11T07:08:58.534Z,14.40
2018-07-11T07:13:01.879Z,14.40
2018-07-11T07:17:05.251Z,14.50
2018-07-11T07:21:08.606Z,14.50
2018-07-11T07:25:12.084Z,14.60
2018-07-11T07:29:15.411Z,14.70
2018-07-11T07:33:18.779Z,14.80
2018-07-11T07:37:22.324Z,14.80
2018-07-11T07:41:25.670Z,14.90
2018-07-11T07:45:29.054Z,15.00
2018-07-11T07:53:36.148Z,15.10
2018-07-11T07:57:39.854Z,15.10
2018-07-11T08:01:43.185Z,15.20
2018-07-11T08:05:46.564Z,15.20
2018-07-11T08:09:49.926Z,15.30
2018-07-11T08:13:53.280Z,15.30
2018-07-11T08:17:56.610Z,15.40
2018-07-11T08:22:10.052Z,15.40
2018-07-11T08:26:25.414Z,15.50
2018-07-11T08:30:41.308Z,15.50
2018-07-11T08:35:02.881Z,15.50
2018-07-11T08:43:25.245Z,15.60
2018-07-11T08:47:47.386Z,15.60
2018-07-11T08:52:16.064Z,15.60
2018-07-11T08:58:35.932Z,15.60
2018-07-11T09:03:49.821Z,15.60
2018-07-11T09:08:05.425Z,15.60
2018-07-11T09:16:25.431Z,15.60
2018-07-11T09:20:45.233Z,15.70
2018-07-11T09:24:49.738Z,15.70
2018-07-11T09:28:53.222Z,15.70
2018-07-11T09:32:56.614Z,15.70
2018-07-11T09:36:59.982Z,15.70
2018-07-11T09:45:06.419Z,15.70
2018-07-11T09:49:09.852Z,15.70
2018-07-11T09:53:13.228Z,15.70
2018-07-11T09:57:17.503Z,15.70
2018-07-11T10:01:24.307Z,15.70
2018-07-11T10:05:27.678Z,15.60
2018-07-11T10:09:31.046Z,15.60
2018-07-11T10:13:34.419Z,15.60
2018-07-11T10:17:38.028Z,15.60
2018-07-11T10:25:45.110Z,15.60
2018-07-11T10:29:48.523Z,15.60
2018-07-11T10:33:51.877Z,15.60
2018-07-11T10:37:55.219Z,15.60
2018-07-11T10:41:58.551Z,15.60
2018-07-11T10:46:01.898Z,15.60
2018-07-11T10:54:12.771Z,15.60
2018-07-11T10:58:16.123Z,15.60
2018-07-11T11:02:22.019Z,15.60
2018-07-11T11:06:25.348Z,15.70
2018-07-11T11:10:28.675Z,15.70
2018-07-11T11:14:32.072Z,15.70
2018-07-11T11:18:35.459Z,15.70
2018-07-11T11:22:38.832Z,15.70
2018-07-11T11:26:42.212Z,15.70
2018-07-11T11:30:45.671Z,15.70
2018-07-11T11:34:49.067Z,15.80
2018-07-11T11:38:52.427Z,15.80
2018-07-11T11:42:55.820Z,15.90
2018-07-11T11:47:02.245Z,16.00
2018-07-11T11:51:05.707Z,16.00
2018-07-11T11:55:09.024Z,16.10
2018-07-11T11:59:12.412Z,16.20
2018-07-11T12:03:15.746Z,16.30
2018-07-11T12:07:19.181Z,16.40
2018-07-11T12:11:22.434Z,16.60
2018-07-11T12:15:25.795Z,16.80
2018-07-11T12:19:29.175Z,17.00
2018-07-11T12:23:32.588Z,17.20
2018-07-11T12:27:35.970Z,17.30
2018-07-11T12:31:39.287Z,17.50
2018-07-11T12:35:42.671Z,17.60
2018-07-11T12:39:46.576Z,17.70
2018-07-11T12:43:49.931Z,17.80
2018-07-11T12:47:58.655Z,17.90
2018-07-11T12:52:02.014Z,18.10
2018-07-11T12:56:05.396Z,18.30
2018-07-11T13:00:08.750Z,18.50
2018-07-11T13:04:12.183Z,18.70
2018-07-11T13:08:17.039Z,18.90
2018-07-11T13:12:20.347Z,19.00
2018-07-11T13:16:23.758Z,19.10
2018-07-11T13:20:27.080Z,19.20
2018-07-11T13:24:30.577Z,19.20
2018-07-11T13:28:33.979Z,19.30
2018-07-11T13:32:37.337Z,19.30
2018-07-11T13:36:41.650Z,19.30
2018-07-11T13:40:45.104Z,19.30
2018-07-11T13:44:49.086Z,19.40
2018-07-11T13:48:52.650Z,19.50
2018-07-11T13:52:56.771Z,19.60
2018-07-11T13:57:01.391Z,19.70
2018-07-11T14:01:04.838Z,19.80
2018-07-11T14:05:08.203Z,19.90
2018-07-11T14:09:11.583Z,20.00
2018-07-11T14:13:15.004Z,20.10
2018-07-11T14:17:18.496Z,20.10
2018-07-11T14:21:33.680Z,20.20
2018-07-11T14:25:40.427Z,20.20
2018-07-11T14:29:44.861Z,20.20
2018-07-11T14:33:49.595Z,20.20
2018-07-11T14:37:52.948Z,20.20
2018-07-11T14:41:56.371Z,20.20
2018-07-11T14:45:59.803Z,20.20
2018-07-11T14:50:07.663Z,20.20
2018-07-11T14:54:11.007Z,20.20
2018-07-11T14:58:14.468Z,20.10
2018-07-11T15:02:17.808Z,20.10
2018-07-11T15:06:21.660Z,20.10
2018-07-11T15:10:25.563Z,20.10
2018-07-11T15:14:28.961Z,20.10
2018-07-11T15:18:32.372Z,20.00
2018-07-11T15:22:35.775Z,20.00
2018-07-11T15:26:40.526Z,19.90
2018-07-11T15:30:44.516Z,19.90
2018-07-11T15:34:47.912Z,19.90
2018-07-11T15:38:51.326Z,19.80
2018-07-11T15:42:54.738Z,19.80
2018-07-11T15:46:58.125Z,19.80
2018-07-11T15:51:01.553Z,19.80
2018-07-11T15:55:05.376Z,19.80
2018-07-11T15:59:10.110Z,19.80
2018-07-11T16:03:14.248Z,19.90
2018-07-11T16:07:17.853Z,19.90
2018-07-11T16:11:21.269Z,20.00
2018-07-11T16:15:24.656Z,20.00
2018-07-11T16:19:28.056Z,20.10
2018-07-11T16:23:31.446Z,20.20
2018-07-11T16:27:34.807Z,20.20
2018-07-11T16:31:38.181Z,20.20
2018-07-11T16:35:41.555Z,20.20
2018-07-11T16:39:44.995Z,20.20
2018-07-11T16:43:48.280Z,20.10
2018-07-11T16:47:51.647Z,20.00
2018-07-11T16:51:55.033Z,20.00
2018-07-11T16:55:58.767Z,19.90
2018-07-11T17:00:07.489Z,19.90
2018-07-11T17:04:12.104Z,19.80
2018-07-11T17:08:17.343Z,19.70
2018-07-11T17:12:20.803Z,19.70
2018-07-11T17:16:31.563Z,19.60
2018-07-11T17:20:35.095Z,19.60
2018-07-11T17:24:40.896Z,19.50
2018-07-11T17:28:44.303Z,19.50
2018-07-11T17:32:47.682Z,19.40
2018-07-11T17:36:57.519Z,19.30
2018-07-11T17:41:01.987Z,19.30
2018-07-11T17:45:16.772Z,19.20
2018-07-11T17:49:25.748Z,19.20
2018-07-11T17:53:35.048Z,19.20
2018-07-11T17:57:45.278Z,19.10
2018-07-11T18:01:50.826Z,19.10
2018-07-11T18:06:02.404Z,19.10
2018-07-11T18:10:06.958Z,19.00
2018-07-11T18:14:10.377Z,19.00
2018-07-11T18:18:25.042Z,19.00
2018-07-11T18:23:35.959Z,19.00
2018-07-11T18:27:50.608Z,18.90
2018-07-11T18:33:07.854Z,18.90
2018-07-11T18:37:19.805Z,18.90
2018-07-11T18:42:36.715Z,18.80
2018-07-11T18:47:17.447Z,18.70
2018-07-11T18:51:29.370Z,18.70
2018-07-11T18:55:39.160Z,18.60
2018-07-11T18:59:53.865Z,18.60
2018-07-11T19:04:08.286Z,18.50
2018-07-11T19:08:23.432Z,18.50
2018-07-11T19:12:29.175Z,18.40
2018-07-11T19:16:44.471Z,18.30
2018-07-11T19:22:02.861Z,18.30
2018-07-11T19:26:20.731Z,18.30
2018-07-11T19:30:34.276Z,18.20
2018-07-11T19:34:46.356Z,18.20
2018-07-11T19:39:00.573Z,18.10
2018-07-11T19:45:19.113Z,18.10
2018-07-11T19:49:37.182Z,18.00
2018-07-11T19:54:52.223Z,18.00
2018-07-11T19:58:55.678Z,18.00
2018-07-11T20:02:59.336Z,17.90
2018-07-11T20:07:04.237Z,17.80
2018-07-11T20:11:07.719Z,17.80
2018-07-11T20:15:11.720Z,17.70
2018-07-11T20:19:15.215Z,17.70
2018-07-11T20:23:19.501Z,17.60
2018-07-11T20:27:30.035Z,17.60
2018-07-11T20:35:36.625Z,17.50
2018-07-11T20:39:40.715Z,17.50
2018-07-11T20:43:47.062Z,17.50
2018-07-11T20:47:52.952Z,17.50
2018-07-11T20:51:58.309Z,17.50
2018-07-11T20:56:03.346Z,17.50
2018-07-11T21:00:18.922Z,17.50
2018-07-11T21:04:33.721Z,17.50
2018-07-11T21:10:53.146Z,17.50
2018-07-11T21:16:18.343Z,17.50
2018-07-11T21:20:23.489Z,17.40
2018-07-11T21:24:27.629Z,17.40
2018-07-11T21:28:32.395Z,17.40
2018-07-11T21:32:36.976Z,17.30
2018-07-11T21:36:41.937Z,17.30
2018-07-11T21:40:46.509Z,17.20
2018-07-11T21:44:51.365Z,17.20
2018-07-11T21:48:55.383Z,17.10
2018-07-11T21:53:00.387Z,17.10
2018-07-11T21:57:04.591Z,17.00
2018-07-11T22:01:10.890Z,17.00
2018-07-11T22:05:15.433Z,17.00
2018-07-11T22:09:20.475Z,17.00
2018-07-11T22:13:23.904Z,17.00
2018-07-11T22:18:39.668Z,17.00
2018-07-11T22:22:42.071Z,17.00
2018-07-11T22:26:45.612Z,17.00
2018-07-11T22:30:49.828Z,17.00
2018-07-11T22:34:52.203Z,17.10
2018-07-11T22:38:54.541Z,17.10
2018-07-11T22:42:56.832Z,17.20
2018-07-11T22:46:59.136Z,17.20
2018-07-11T22:51:01.435Z,17.20
2018-07-11T22:55:03.747Z,17.20
2018-07-11T22:59:06.036Z,17.30
2018-07-11T23:03:08.352Z,17.30
2018-07-11T23:07:10.673Z,17.30
2018-07-11T23:11:12.992Z,17.30
2018-07-11T23:15:15.299Z,17.30
2018-07-11T23:19:17.583Z,17.40
2018-07-11T23:23:19.891Z,17.40
2018-07-11T23:27:22.210Z,17.40
2018-07-11T23:31:24.524Z,17.40
2018-07-11T23:35:26.860Z,17.40
2018-07-11T23:39:29.150Z,17.40
2018-07-11T23:43:31.487Z,17.40
2018-07-11T23:47:33.792Z,17.40
2018-07-11T23:51:36.116Z,17.40
2018-07-11T23:55:38.404Z,17.50
2018-07-11T23:59:40.755Z,17.50
